ロングイェールビーン の空港の天気 - METARとTAF

スヴァールバル空港 ( ENSB / LYR ) - スヴァールバル諸島・ヤンマイエン島 ロングイェールビーン
飛行場実況気象(Metar)
観測時間10/22 13:50 CEST (10/22 11:50 UTC)
風向・風速南南東 4m/s
視程10km以上
天気現象
少しの雲 雲底高度 760m
気温-5℃
湿度74%
気圧1018hPa
METARENSB 221150Z 15008KT 9999 FEW025 M05/M09 Q1018 NOSIG RMK WIND 1400FT 14006KT
過去の天気等 Google飛行場航空写真 Wunderground天気予報

過去48時間のMETAR

飛行場予報(TAF)
発表時間: -
TAF ENSB 2212/2312 12008KT 9999 FEW025